sensor_id;sensor_type;location;lat;lon;timestamp;P1;durP1;ratioP1;P2;durP2;ratioP2
44606;SDS011;30315;46.072;14.474;2024-02-28T00:02:06;11.43;;;10.18;;
44606;SDS011;30315;46.072;14.474;2024-02-28T00:04:39;12.35;;;10.32;;
44606;SDS011;30315;46.072;14.474;2024-02-28T00:07:08;9.82;;;8.95;;
44606;SDS011;30315;46.072;14.474;2024-02-28T00:09:35;12.63;;;10.27;;
44606;SDS011;30315;46.072;14.474;2024-02-28T00:12:06;16.63;;;10.48;;
44606;SDS011;30315;46.072;14.474;2024-02-28T00:14:36;9.73;;;8.60;;
44606;SDS011;30315;46.072;14.474;2024-02-28T00:17:03;14.98;;;9.63;;
44606;SDS011;30315;46.072;14.474;2024-02-28T00:19:33;10.07;;;7.60;;
44606;SDS011;30315;46.072;14.474;2024-02-28T00:22:02;10.50;;;9.35;;
44606;SDS011;30315;46.072;14.474;2024-02-28T00:24:29;12.65;;;10.55;;
44606;SDS011;30315;46.072;14.474;2024-02-28T00:29:28;9.38;;;8.23;;
44606;SDS011;30315;46.072;14.474;2024-02-28T00:31:57;9.90;;;8.88;;
44606;SDS011;30315;46.072;14.474;2024-02-28T00:34:25;12.70;;;9.82;;
44606;SDS011;30315;46.072;14.474;2024-02-28T00:36:52;10.68;;;9.57;;
44606;SDS011;30315;46.072;14.474;2024-02-28T00:39:22;11.90;;;9.02;;
44606;SDS011;30315;46.072;14.474;2024-02-28T00:41:50;15.65;;;10.13;;
44606;SDS011;30315;46.072;14.474;2024-02-28T00:44:17;10.00;;;8.77;;
44606;SDS011;30315;46.072;14.474;2024-02-28T00:46:48;11.20;;;9.77;;
44606;SDS011;30315;46.072;14.474;2024-02-28T00:49:18;10.70;;;8.65;;
44606;SDS011;30315;46.072;14.474;2024-02-28T00:51:45;14.25;;;8.73;;
44606;SDS011;30315;46.072;14.474;2024-02-28T00:54:13;11.02;;;9.98;;
44606;SDS011;30315;46.072;14.474;2024-02-28T00:56:45;12.05;;;9.60;;
44606;SDS011;30315;46.072;14.474;2024-02-28T00:59:12;14.43;;;9.18;;
44606;SDS011;30315;46.072;14.474;2024-02-28T01:01:40;10.30;;;9.25;;
44606;SDS011;30315;46.072;14.474;2024-02-28T01:04:11;9.07;;;8.02;;
44606;SDS011;30315;46.072;14.474;2024-02-28T01:06:40;11.25;;;8.98;;
44606;SDS011;30315;46.072;14.474;2024-02-28T01:09:07;15.90;;;10.35;;
44606;SDS011;30315;46.072;14.474;2024-02-28T01:11:37;14.50;;;9.25;;
44606;SDS011;30315;46.072;14.474;2024-02-28T01:14:06;13.45;;;10.30;;
44606;SDS011;30315;46.072;14.474;2024-02-28T01:16:33;17.08;;;9.98;;
44606;SDS011;30315;46.072;14.474;2024-02-28T01:19:02;11.90;;;8.88;;
44606;SDS011;30315;46.072;14.474;2024-02-28T01:21:31;11.10;;;9.25;;
44606;SDS011;30315;46.072;14.474;2024-02-28T01:24:01;10.80;;;9.50;;
44606;SDS011;30315;46.072;14.474;2024-02-28T01:26:28;11.90;;;7.43;;
44606;SDS011;30315;46.072;14.474;2024-02-28T01:28:55;15.57;;;9.32;;
44606;SDS011;30315;46.072;14.474;2024-02-28T01:31:24;9.70;;;8.15;;
44606;SDS011;30315;46.072;14.474;2024-02-28T01:33:52;10.80;;;9.45;;
44606;SDS011;30315;46.072;14.474;2024-02-28T01:36:19;10.43;;;8.90;;
44606;SDS011;30315;46.072;14.474;2024-02-28T01:38:48;12.25;;;9.35;;
44606;SDS011;30315;46.072;14.474;2024-02-28T01:41:17;10.98;;;8.15;;
44606;SDS011;30315;46.072;14.474;2024-02-28T01:43:45;11.05;;;8.82;;
44606;SDS011;30315;46.072;14.474;2024-02-28T01:46:22;11.27;;;8.95;;
44606;SDS011;30315;46.072;14.474;2024-02-28T01:48:56;10.00;;;7.93;;
44606;SDS011;30315;46.072;14.474;2024-02-28T01:51:25;13.43;;;10.18;;
44606;SDS011;30315;46.072;14.474;2024-02-28T01:53:54;10.52;;;9.43;;
44606;SDS011;30315;46.072;14.474;2024-02-28T01:56:24;10.93;;;9.65;;
44606;SDS011;30315;46.072;14.474;2024-02-28T01:58:52;8.07;;;7.38;;
44606;SDS011;30315;46.072;14.474;2024-02-28T02:04:52;8.80;;;8.05;;
44606;SDS011;30315;46.072;14.474;2024-02-28T02:07:22;13.10;;;9.48;;
44606;SDS011;30315;46.072;14.474;2024-02-28T02:09:49;15.85;;;9.73;;
44606;SDS011;30315;46.072;14.474;2024-02-28T02:12:17;12.70;;;10.07;;
44606;SDS011;30315;46.072;14.474;2024-02-28T02:14:48;15.55;;;10.68;;
44606;SDS011;30315;46.072;14.474;2024-02-28T02:17:15;14.27;;;9.73;;
44606;SDS011;30315;46.072;14.474;2024-02-28T02:19:42;9.85;;;8.85;;
44606;SDS011;30315;46.072;14.474;2024-02-28T02:22:14;11.70;;;8.48;;
44606;SDS011;30315;46.072;14.474;2024-02-28T02:24:42;18.02;;;9.98;;
44606;SDS011;30315;46.072;14.474;2024-02-28T02:29:58;13.85;;;9.40;;
44606;SDS011;30315;46.072;14.474;2024-02-28T02:32:48;20.92;;;10.60;;
44606;SDS011;30315;46.072;14.474;2024-02-28T02:35:15;20.30;;;9.15;;
44606;SDS011;30315;46.072;14.474;2024-02-28T02:37:43;10.43;;;8.55;;
44606;SDS011;30315;46.072;14.474;2024-02-28T02:40:16;11.30;;;8.32;;
44606;SDS011;30315;46.072;14.474;2024-02-28T02:42:44;8.88;;;7.90;;
44606;SDS011;30315;46.072;14.474;2024-02-28T02:45:13;11.77;;;8.02;;
44606;SDS011;30315;46.072;14.474;2024-02-28T02:47:40;9.88;;;8.05;;
44606;SDS011;30315;46.072;14.474;2024-02-28T02:50:13;10.98;;;8.65;;
44606;SDS011;30315;46.072;14.474;2024-02-28T02:52:40;17.77;;;10.02;;
44606;SDS011;30315;46.072;14.474;2024-02-28T02:55:09;12.95;;;8.57;;
44606;SDS011;30315;46.072;14.474;2024-02-28T02:57:39;8.52;;;7.35;;
44606;SDS011;30315;46.072;14.474;2024-02-28T03:00:10;16.08;;;8.13;;
44606;SDS011;30315;46.072;14.474;2024-02-28T03:02:39;14.50;;;9.95;;
44606;SDS011;30315;46.072;14.474;2024-02-28T03:05:09;14.13;;;9.13;;
44606;SDS011;30315;46.072;14.474;2024-02-28T03:07:36;8.93;;;8.02;;
44606;SDS011;30315;46.072;14.474;2024-02-28T03:10:05;14.90;;;8.20;;
44606;SDS011;30315;46.072;14.474;2024-02-28T03:12:36;14.68;;;9.23;;
44606;SDS011;30315;46.072;14.474;2024-02-28T03:15:04;9.30;;;7.93;;
44606;SDS011;30315;46.072;14.474;2024-02-28T03:17:34;12.60;;;8.85;;
44606;SDS011;30315;46.072;14.474;2024-02-28T03:20:03;16.85;;;10.52;;
44606;SDS011;30315;46.072;14.474;2024-02-28T03:22:34;10.38;;;7.93;;
44606;SDS011;30315;46.072;14.474;2024-02-28T03:25:01;12.52;;;8.38;;
44606;SDS011;30315;46.072;14.474;2024-02-28T03:27:29;11.48;;;8.55;;
44606;SDS011;30315;46.072;14.474;2024-02-28T03:29:58;19.80;;;9.32;;
44606;SDS011;30315;46.072;14.474;2024-02-28T03:32:26;12.85;;;8.82;;
44606;SDS011;30315;46.072;14.474;2024-02-28T03:34:54;9.95;;;8.38;;
44606;SDS011;30315;46.072;14.474;2024-02-28T03:37:23;14.05;;;10.02;;
44606;SDS011;30315;46.072;14.474;2024-02-28T03:42:20;13.25;;;9.32;;
44606;SDS011;30315;46.072;14.474;2024-02-28T03:44:48;9.25;;;8.23;;
44606;SDS011;30315;46.072;14.474;2024-02-28T03:47:19;12.48;;;8.90;;
44606;SDS011;30315;46.072;14.474;2024-02-28T03:49:46;11.27;;;8.70;;
44606;SDS011;30315;46.072;14.474;2024-02-28T03:52:13;12.40;;;8.88;;
44606;SDS011;30315;46.072;14.474;2024-02-28T03:54:45;10.32;;;8.40;;
44606;SDS011;30315;46.072;14.474;2024-02-28T03:57:12;8.82;;;7.93;;
44606;SDS011;30315;46.072;14.474;2024-02-28T03:59:42;18.30;;;8.55;;
44606;SDS011;30315;46.072;14.474;2024-02-28T04:02:11;14.40;;;8.55;;
44606;SDS011;30315;46.072;14.474;2024-02-28T04:04:38;9.32;;;8.50;;
44606;SDS011;30315;46.072;14.474;2024-02-28T04:07:08;10.02;;;9.00;;
44606;SDS011;30315;46.072;14.474;2024-02-28T04:09:39;11.25;;;9.25;;
44606;SDS011;30315;46.072;14.474;2024-02-28T04:12:08;16.90;;;9.48;;
44606;SDS011;30315;46.072;14.474;2024-02-28T04:14:37;16.80;;;8.25;;
44606;SDS011;30315;46.072;14.474;2024-02-28T04:17:07;8.60;;;7.78;;
44606;SDS011;30315;46.072;14.474;2024-02-28T04:19:36;16.75;;;9.20;;
44606;SDS011;30315;46.072;14.474;2024-02-28T04:22:04;9.07;;;7.95;;
44606;SDS011;30315;46.072;14.474;2024-02-28T04:24:33;11.52;;;9.15;;
44606;SDS011;30315;46.072;14.474;2024-02-28T04:27:02;9.13;;;7.55;;
44606;SDS011;30315;46.072;14.474;2024-02-28T04:29:32;8.57;;;7.85;;
44606;SDS011;30315;46.072;14.474;2024-02-28T04:31:59;10.27;;;8.18;;
44606;SDS011;30315;46.072;14.474;2024-02-28T04:34:26;12.27;;;8.70;;
44606;SDS011;30315;46.072;14.474;2024-02-28T04:36:55;9.80;;;8.82;;
44606;SDS011;30315;46.072;14.474;2024-02-28T04:39:23;17.33;;;8.80;;
44606;SDS011;30315;46.072;14.474;2024-02-28T04:41:50;13.57;;;8.70;;
44606;SDS011;30315;46.072;14.474;2024-02-28T04:44:17;21.63;;;8.90;;
44606;SDS011;30315;46.072;14.474;2024-02-28T04:46:47;11.00;;;9.73;;
44606;SDS011;30315;46.072;14.474;2024-02-28T04:49:14;11.88;;;8.45;;
44606;SDS011;30315;46.072;14.474;2024-02-28T04:51:41;9.68;;;7.05;;
44606;SDS011;30315;46.072;14.474;2024-02-28T04:54:12;11.85;;;8.15;;
44606;SDS011;30315;46.072;14.474;2024-02-28T04:56:40;9.77;;;8.68;;
44606;SDS011;30315;46.072;14.474;2024-02-28T04:59:11;11.88;;;8.07;;
44606;SDS011;30315;46.072;14.474;2024-02-28T05:01:41;9.10;;;7.45;;
44606;SDS011;30315;46.072;14.474;2024-02-28T05:04:12;11.55;;;7.57;;
44606;SDS011;30315;46.072;14.474;2024-02-28T05:06:40;11.75;;;7.70;;
44606;SDS011;30315;46.072;14.474;2024-02-28T05:09:15;18.05;;;8.50;;
44606;SDS011;30315;46.072;14.474;2024-02-28T05:11:45;9.10;;;8.15;;
44606;SDS011;30315;46.072;14.474;2024-02-28T05:14:12;10.07;;;8.43;;
44606;SDS011;30315;46.072;14.474;2024-02-28T05:16:41;7.70;;;6.97;;
44606;SDS011;30315;46.072;14.474;2024-02-28T05:19:13;10.95;;;9.15;;
44606;SDS011;30315;46.072;14.474;2024-02-28T05:21:41;22.50;;;10.57;;
44606;SDS011;30315;46.072;14.474;2024-02-28T05:24:11;19.35;;;11.82;;
44606;SDS011;30315;46.072;14.474;2024-02-28T05:26:40;12.15;;;10.30;;
44606;SDS011;30315;46.072;14.474;2024-02-28T05:29:07;15.00;;;9.77;;
44606;SDS011;30315;46.072;14.474;2024-02-28T05:31:36;14.75;;;8.38;;
44606;SDS011;30315;46.072;14.474;2024-02-28T05:34:06;12.43;;;9.82;;
44606;SDS011;30315;46.072;14.474;2024-02-28T05:36:35;15.43;;;10.05;;
44606;SDS011;30315;46.072;14.474;2024-02-28T05:39:02;15.43;;;8.90;;
44606;SDS011;30315;46.072;14.474;2024-02-28T05:44:01;11.57;;;9.25;;
44606;SDS011;30315;46.072;14.474;2024-02-28T05:46:30;12.75;;;8.70;;
44606;SDS011;30315;46.072;14.474;2024-02-28T05:48:58;11.77;;;9.63;;
44606;SDS011;30315;46.072;14.474;2024-02-28T05:51:28;12.20;;;9.80;;
44606;SDS011;30315;46.072;14.474;2024-02-28T05:53:57;12.07;;;9.68;;
44606;SDS011;30315;46.072;14.474;2024-02-28T05:56:24;13.07;;;8.27;;
44606;SDS011;30315;46.072;14.474;2024-02-28T05:58:51;13.30;;;10.07;;
44606;SDS011;30315;46.072;14.474;2024-02-28T06:01:23;27.30;;;10.77;;
44606;SDS011;30315;46.072;14.474;2024-02-28T06:03:50;12.45;;;8.98;;
44606;SDS011;30315;46.072;14.474;2024-02-28T06:06:18;13.52;;;9.45;;
44606;SDS011;30315;46.072;14.474;2024-02-28T06:08:49;9.70;;;8.68;;
44606;SDS011;30315;46.072;14.474;2024-02-28T06:11:21;14.35;;;10.95;;
44606;SDS011;30315;46.072;14.474;2024-02-28T06:13:49;14.73;;;9.35;;
44606;SDS011;30315;46.072;14.474;2024-02-28T06:16:19;12.50;;;9.90;;
44606;SDS011;30315;46.072;14.474;2024-02-28T06:18:49;11.90;;;8.15;;
44606;SDS011;30315;46.072;14.474;2024-02-28T06:21:16;11.52;;;8.38;;
44606;SDS011;30315;46.072;14.474;2024-02-28T06:23:45;15.68;;;11.23;;
44606;SDS011;30315;46.072;14.474;2024-02-28T06:26:13;15.10;;;10.95;;
44606;SDS011;30315;46.072;14.474;2024-02-28T06:28:45;13.88;;;10.65;;
44606;SDS011;30315;46.072;14.474;2024-02-28T06:31:16;16.35;;;10.38;;
44606;SDS011;30315;46.072;14.474;2024-02-28T06:33:46;20.73;;;10.13;;
44606;SDS011;30315;46.072;14.474;2024-02-28T06:36:15;10.77;;;9.65;;
44606;SDS011;30315;46.072;14.474;2024-02-28T06:38:43;21.42;;;9.27;;
44606;SDS011;30315;46.072;14.474;2024-02-28T06:41:11;14.10;;;9.65;;
44606;SDS011;30315;46.072;14.474;2024-02-28T06:43:38;15.48;;;10.00;;
44606;SDS011;30315;46.072;14.474;2024-02-28T06:46:08;16.50;;;9.68;;
44606;SDS011;30315;46.072;14.474;2024-02-28T06:48:36;12.45;;;10.52;;
44606;SDS011;30315;46.072;14.474;2024-02-28T06:51:05;22.30;;;10.98;;
44606;SDS011;30315;46.072;14.474;2024-02-28T06:53:34;16.58;;;10.43;;
44606;SDS011;30315;46.072;14.474;2024-02-28T06:56:02;13.93;;;10.27;;
44606;SDS011;30315;46.072;14.474;2024-02-28T06:58:32;13.82;;;9.80;;
44606;SDS011;30315;46.072;14.474;2024-02-28T07:01:03;13.30;;;9.88;;
44606;SDS011;30315;46.072;14.474;2024-02-28T07:03:33;23.85;;;10.05;;
44606;SDS011;30315;46.072;14.474;2024-02-28T07:06:00;15.65;;;9.70;;
44606;SDS011;30315;46.072;14.474;2024-02-28T07:08:28;15.07;;;9.50;;
44606;SDS011;30315;46.072;14.474;2024-02-28T07:11:00;16.73;;;10.77;;
44606;SDS011;30315;46.072;14.474;2024-02-28T07:13:30;16.08;;;10.48;;
44606;SDS011;30315;46.072;14.474;2024-02-28T07:15:57;14.13;;;11.73;;
44606;SDS011;30315;46.072;14.474;2024-02-28T07:18:28;18.35;;;10.15;;
44606;SDS011;30315;46.072;14.474;2024-02-28T07:20:57;13.32;;;10.45;;
44606;SDS011;30315;46.072;14.474;2024-02-28T07:23:25;13.40;;;9.82;;
44606;SDS011;30315;46.072;14.474;2024-02-28T07:25:54;15.25;;;8.85;;
44606;SDS011;30315;46.072;14.474;2024-02-28T07:28:31;14.35;;;9.23;;
44606;SDS011;30315;46.072;14.474;2024-02-28T07:30:58;17.13;;;9.02;;
44606;SDS011;30315;46.072;14.474;2024-02-28T07:33:28;13.63;;;9.57;;
44606;SDS011;30315;46.072;14.474;2024-02-28T07:35:57;11.18;;;9.98;;
44606;SDS011;30315;46.072;14.474;2024-02-28T07:38:29;22.70;;;11.93;;
44606;SDS011;30315;46.072;14.474;2024-02-28T07:40:59;10.82;;;9.30;;
44606;SDS011;30315;46.072;14.474;2024-02-28T07:43:26;12.40;;;9.52;;
44606;SDS011;30315;46.072;14.474;2024-02-28T07:45:57;11.77;;;9.45;;
44606;SDS011;30315;46.072;14.474;2024-02-28T07:48:26;17.80;;;10.15;;
44606;SDS011;30315;46.072;14.474;2024-02-28T07:50:54;12.70;;;8.73;;
44606;SDS011;30315;46.072;14.474;2024-02-28T07:53:25;11.65;;;9.68;;
44606;SDS011;30315;46.072;14.474;2024-02-28T07:55:52;9.68;;;8.23;;
44606;SDS011;30315;46.072;14.474;2024-02-28T07:58:19;13.48;;;9.52;;
44606;SDS011;30315;46.072;14.474;2024-02-28T08:00:51;10.07;;;8.98;;
44606;SDS011;30315;46.072;14.474;2024-02-28T08:03:21;13.30;;;9.45;;
44606;SDS011;30315;46.072;14.474;2024-02-28T08:05:52;8.63;;;7.80;;
44606;SDS011;30315;46.072;14.474;2024-02-28T08:08:25;13.43;;;9.23;;
44606;SDS011;30315;46.072;14.474;2024-02-28T08:10:52;11.82;;;8.85;;
44606;SDS011;30315;46.072;14.474;2024-02-28T08:13:20;8.80;;;8.07;;
44606;SDS011;30315;46.072;14.474;2024-02-28T08:15:51;11.63;;;8.68;;
44606;SDS011;30315;46.072;14.474;2024-02-28T08:18:20;11.13;;;8.45;;
44606;SDS011;30315;46.072;14.474;2024-02-28T08:20:48;10.45;;;7.55;;
44606;SDS011;30315;46.072;14.474;2024-02-28T08:23:21;7.80;;;7.00;;
44606;SDS011;30315;46.072;14.474;2024-02-28T08:25:52;7.97;;;7.20;;
44606;SDS011;30315;46.072;14.474;2024-02-28T08:28:20;7.28;;;6.32;;
44606;SDS011;30315;46.072;14.474;2024-02-28T08:30:50;6.72;;;6.10;;
44606;SDS011;30315;46.072;14.474;2024-02-28T08:33:19;9.75;;;7.43;;
44606;SDS011;30315;46.072;14.474;2024-02-28T08:35:51;8.75;;;7.28;;
44606;SDS011;30315;46.072;14.474;2024-02-28T08:38:22;7.60;;;6.60;;
44606;SDS011;30315;46.072;14.474;2024-02-28T08:40:54;10.00;;;7.13;;
44606;SDS011;30315;46.072;14.474;2024-02-28T08:43:21;9.02;;;7.82;;
44606;SDS011;30315;46.072;14.474;2024-02-28T08:45:48;7.90;;;7.20;;
44606;SDS011;30315;46.072;14.474;2024-02-28T08:48:18;7.53;;;6.65;;
44606;SDS011;30315;46.072;14.474;2024-02-28T08:50:45;8.10;;;7.20;;
44606;SDS011;30315;46.072;14.474;2024-02-28T08:53:12;7.50;;;6.20;;
44606;SDS011;30315;46.072;14.474;2024-02-28T08:55:42;8.32;;;7.28;;
44606;SDS011;30315;46.072;14.474;2024-02-28T08:58:11;10.88;;;8.02;;
44606;SDS011;30315;46.072;14.474;2024-02-28T09:00:38;7.22;;;6.60;;
44606;SDS011;30315;46.072;14.474;2024-02-28T09:03:06;11.10;;;7.45;;
44606;SDS011;30315;46.072;14.474;2024-02-28T09:05:37;9.55;;;7.53;;
44606;SDS011;30315;46.072;14.474;2024-02-28T09:08:05;6.63;;;6.03;;
44606;SDS011;30315;46.072;14.474;2024-02-28T09:10:36;11.52;;;7.72;;
44606;SDS011;30315;46.072;14.474;2024-02-28T09:13:08;16.52;;;7.90;;
44606;SDS011;30315;46.072;14.474;2024-02-28T09:15:39;11.52;;;7.28;;
44606;SDS011;30315;46.072;14.474;2024-02-28T09:18:07;8.57;;;6.72;;
44606;SDS011;30315;46.072;14.474;2024-02-28T09:20:37;8.90;;;7.18;;
44606;SDS011;30315;46.072;14.474;2024-02-28T09:23:07;8.70;;;7.07;;
44606;SDS011;30315;46.072;14.474;2024-02-28T09:25:34;8.05;;;7.07;;
44606;SDS011;30315;46.072;14.474;2024-02-28T09:28:04;8.20;;;7.43;;
44606;SDS011;30315;46.072;14.474;2024-02-28T09:30:35;9.00;;;6.82;;
44606;SDS011;30315;46.072;14.474;2024-02-28T09:33:13;12.35;;;7.22;;
44606;SDS011;30315;46.072;14.474;2024-02-28T09:35:48;14.63;;;6.50;;
44606;SDS011;30315;46.072;14.474;2024-02-28T09:38:15;6.90;;;5.70;;
44606;SDS011;30315;46.072;14.474;2024-02-28T09:40:46;7.00;;;6.43;;
44606;SDS011;30315;46.072;14.474;2024-02-28T09:43:40;8.55;;;6.75;;
44606;SDS011;30315;46.072;14.474;2024-02-28T09:46:08;14.50;;;6.95;;
44606;SDS011;30315;46.072;14.474;2024-02-28T09:48:39;9.13;;;6.63;;
44606;SDS011;30315;46.072;14.474;2024-02-28T09:51:12;6.90;;;6.35;;
44606;SDS011;30315;46.072;14.474;2024-02-28T09:53:41;8.48;;;6.30;;
44606;SDS011;30315;46.072;14.474;2024-02-28T09:56:08;6.38;;;5.75;;
44606;SDS011;30315;46.072;14.474;2024-02-28T09:58:38;9.52;;;6.50;;
44606;SDS011;30315;46.072;14.474;2024-02-28T10:01:09;6.32;;;5.72;;
44606;SDS011;30315;46.072;14.474;2024-02-28T10:03:40;8.13;;;6.38;;
44606;SDS011;30315;46.072;14.474;2024-02-28T10:06:12;8.73;;;5.78;;
44606;SDS011;30315;46.072;14.474;2024-02-28T10:08:40;8.25;;;6.68;;
44606;SDS011;30315;46.072;14.474;2024-02-28T10:11:07;8.15;;;7.07;;
44606;SDS011;30315;46.072;14.474;2024-02-28T10:13:39;7.50;;;6.82;;
44606;SDS011;30315;46.072;14.474;2024-02-28T10:16:08;7.68;;;7.03;;
44606;SDS011;30315;46.072;14.474;2024-02-28T10:18:39;8.73;;;6.55;;
44606;SDS011;30315;46.072;14.474;2024-02-28T10:21:09;9.20;;;6.78;;
44606;SDS011;30315;46.072;14.474;2024-02-28T10:23:44;8.43;;;6.80;;
44606;SDS011;30315;46.072;14.474;2024-02-28T10:26:12;16.65;;;7.45;;
44606;SDS011;30315;46.072;14.474;2024-02-28T10:28:41;6.53;;;5.85;;
44606;SDS011;30315;46.072;14.474;2024-02-28T10:31:14;7.50;;;6.85;;
44606;SDS011;30315;46.072;14.474;2024-02-28T10:33:41;9.98;;;7.38;;
44606;SDS011;30315;46.072;14.474;2024-02-28T10:36:09;6.40;;;5.80;;
44606;SDS011;30315;46.072;14.474;2024-02-28T10:38:38;7.68;;;6.50;;
44606;SDS011;30315;46.072;14.474;2024-02-28T10:41:06;6.95;;;6.18;;
44606;SDS011;30315;46.072;14.474;2024-02-28T10:43:38;8.50;;;6.72;;
44606;SDS011;30315;46.072;14.474;2024-02-28T10:46:12;6.53;;;5.80;;
44606;SDS011;30315;46.072;14.474;2024-02-28T10:49:01;15.13;;;5.70;;
44606;SDS011;30315;46.072;14.474;2024-02-28T10:51:36;10.32;;;7.15;;
44606;SDS011;30315;46.072;14.474;2024-02-28T10:56:33;7.45;;;6.15;;
44606;SDS011;30315;46.072;14.474;2024-02-28T10:59:01;6.63;;;6.03;;
44606;SDS011;30315;46.072;14.474;2024-02-28T11:01:35;6.75;;;6.18;;
44606;SDS011;30315;46.072;14.474;2024-02-28T11:04:11;7.78;;;6.90;;
44606;SDS011;30315;46.072;14.474;2024-02-28T11:06:48;9.80;;;6.78;;
44606;SDS011;30315;46.072;14.474;2024-02-28T11:09:19;7.38;;;6.10;;
44606;SDS011;30315;46.072;14.474;2024-02-28T11:11:59;7.80;;;6.70;;
44606;SDS011;30315;46.072;14.474;2024-02-28T11:14:26;7.30;;;6.43;;
44606;SDS011;30315;46.072;14.474;2024-02-28T11:17:02;8.90;;;6.25;;
44606;SDS011;30315;46.072;14.474;2024-02-28T11:19:31;7.65;;;5.82;;
44606;SDS011;30315;46.072;14.474;2024-02-28T11:22:02;7.18;;;6.28;;
44606;SDS011;30315;46.072;14.474;2024-02-28T11:24:33;5.35;;;4.95;;
44606;SDS011;30315;46.072;14.474;2024-02-28T11:27:01;7.10;;;6.07;;
44606;SDS011;30315;46.072;14.474;2024-02-28T11:29:30;6.83;;;5.37;;
44606;SDS011;30315;46.072;14.474;2024-02-28T11:31:59;5.85;;;5.20;;
44606;SDS011;30315;46.072;14.474;2024-02-28T11:34:27;5.18;;;4.72;;
44606;SDS011;30315;46.072;14.474;2024-02-28T11:36:54;5.88;;;5.40;;
44606;SDS011;30315;46.072;14.474;2024-02-28T11:39:27;6.10;;;5.55;;
44606;SDS011;30315;46.072;14.474;2024-02-28T11:44:52;6.32;;;5.00;;
44606;SDS011;30315;46.072;14.474;2024-02-28T11:47:29;7.47;;;6.70;;
44606;SDS011;30315;46.072;14.474;2024-02-28T11:50:02;10.60;;;6.35;;
44606;SDS011;30315;46.072;14.474;2024-02-28T11:52:33;7.45;;;6.80;;
44606;SDS011;30315;46.072;14.474;2024-02-28T11:55:01;10.10;;;6.85;;
44606;SDS011;30315;46.072;14.474;2024-02-28T11:57:29;8.27;;;6.22;;
44606;SDS011;30315;46.072;14.474;2024-02-28T12:00:04;7.65;;;6.90;;
44606;SDS011;30315;46.072;14.474;2024-02-28T12:02:38;7.15;;;6.47;;
44606;SDS011;30315;46.072;14.474;2024-02-28T12:05:05;9.20;;;7.32;;
44606;SDS011;30315;46.072;14.474;2024-02-28T12:07:36;9.70;;;6.68;;
44606;SDS011;30315;46.072;14.474;2024-02-28T12:10:05;8.45;;;7.32;;
44606;SDS011;30315;46.072;14.474;2024-02-28T12:12:35;9.32;;;6.32;;
44606;SDS011;30315;46.072;14.474;2024-02-28T12:15:07;14.85;;;9.15;;
44606;SDS011;30315;46.072;14.474;2024-02-28T12:17:36;11.47;;;8.60;;
44606;SDS011;30315;46.072;14.474;2024-02-28T12:20:04;9.55;;;7.97;;
44606;SDS011;30315;46.072;14.474;2024-02-28T12:22:36;10.82;;;7.78;;
44606;SDS011;30315;46.072;14.474;2024-02-28T12:25:06;14.02;;;8.88;;
44606;SDS011;30315;46.072;14.474;2024-02-28T12:27:35;9.65;;;7.15;;
44606;SDS011;30315;46.072;14.474;2024-02-28T12:30:02;17.70;;;9.00;;
44606;SDS011;30315;46.072;14.474;2024-02-28T12:32:30;11.48;;;8.77;;
44606;SDS011;30315;46.072;14.474;2024-02-28T12:34:58;14.90;;;9.50;;
44606;SDS011;30315;46.072;14.474;2024-02-28T12:37:27;10.25;;;8.45;;
44606;SDS011;30315;46.072;14.474;2024-02-28T12:39:55;14.10;;;8.68;;
44606;SDS011;30315;46.072;14.474;2024-02-28T12:42:22;10.25;;;8.23;;
44606;SDS011;30315;46.072;14.474;2024-02-28T12:44:53;9.13;;;7.30;;
44606;SDS011;30315;46.072;14.474;2024-02-28T12:47:21;10.43;;;7.70;;
44606;SDS011;30315;46.072;14.474;2024-02-28T12:49:50;15.07;;;7.63;;
44606;SDS011;30315;46.072;14.474;2024-02-28T12:52:21;11.57;;;8.00;;
44606;SDS011;30315;46.072;14.474;2024-02-28T12:54:49;10.23;;;7.55;;
44606;SDS011;30315;46.072;14.474;2024-02-28T12:57:17;8.25;;;7.40;;
44606;SDS011;30315;46.072;14.474;2024-02-28T12:59:48;9.88;;;7.68;;
44606;SDS011;30315;46.072;14.474;2024-02-28T13:02:17;8.30;;;7.38;;
44606;SDS011;30315;46.072;14.474;2024-02-28T13:04:46;12.00;;;7.53;;
44606;SDS011;30315;46.072;14.474;2024-02-28T13:07:13;11.75;;;7.38;;
44606;SDS011;30315;46.072;14.474;2024-02-28T13:09:41;13.48;;;7.50;;
44606;SDS011;30315;46.072;14.474;2024-02-28T13:12:08;10.05;;;7.40;;
44606;SDS011;30315;46.072;14.474;2024-02-28T13:14:39;9.10;;;7.82;;
44606;SDS011;30315;46.072;14.474;2024-02-28T13:17:07;10.85;;;7.63;;
44606;SDS011;30315;46.072;14.474;2024-02-28T13:19:34;11.25;;;6.95;;
44606;SDS011;30315;46.072;14.474;2024-02-28T13:22:05;7.38;;;6.70;;
44606;SDS011;30315;46.072;14.474;2024-02-28T13:24:33;9.20;;;6.32;;
44606;SDS011;30315;46.072;14.474;2024-02-28T13:27:02;8.00;;;6.15;;
44606;SDS011;30315;46.072;14.474;2024-02-28T13:29:30;7.57;;;6.53;;
44606;SDS011;30315;46.072;14.474;2024-02-28T13:31:58;10.05;;;6.32;;
44606;SDS011;30315;46.072;14.474;2024-02-28T13:34:28;8.43;;;6.05;;
44606;SDS011;30315;46.072;14.474;2024-02-28T13:37:02;9.38;;;5.70;;
44606;SDS011;30315;46.072;14.474;2024-02-28T13:39:31;6.57;;;5.95;;
44606;SDS011;30315;46.072;14.474;2024-02-28T13:41:59;6.30;;;5.80;;
44606;SDS011;30315;46.072;14.474;2024-02-28T13:44:26;8.82;;;6.60;;
44606;SDS011;30315;46.072;14.474;2024-02-28T13:46:56;11.43;;;6.68;;
44606;SDS011;30315;46.072;14.474;2024-02-28T13:49:25;6.55;;;5.65;;
44606;SDS011;30315;46.072;14.474;2024-02-28T13:51:52;7.60;;;5.90;;
44606;SDS011;30315;46.072;14.474;2024-02-28T13:54:22;7.18;;;6.03;;
44606;SDS011;30315;46.072;14.474;2024-02-28T13:56:51;4.75;;;4.15;;
44606;SDS011;30315;46.072;14.474;2024-02-28T13:59:19;10.18;;;5.82;;
44606;SDS011;30315;46.072;14.474;2024-02-28T14:01:50;9.23;;;6.10;;
44606;SDS011;30315;46.072;14.474;2024-02-28T14:04:19;7.68;;;5.50;;
44606;SDS011;30315;46.072;14.474;2024-02-28T14:06:49;5.93;;;5.28;;
44606;SDS011;30315;46.072;14.474;2024-02-28T14:09:16;9.00;;;5.72;;
44606;SDS011;30315;46.072;14.474;2024-02-28T14:14:18;9.63;;;5.80;;
44606;SDS011;30315;46.072;14.474;2024-02-28T14:16:46;4.75;;;4.43;;
44606;SDS011;30315;46.072;14.474;2024-02-28T14:19:15;6.72;;;5.65;;
44606;SDS011;30315;46.072;14.474;2024-02-28T14:21:44;6.13;;;4.80;;
44606;SDS011;30315;46.072;14.474;2024-02-28T14:24:12;5.45;;;4.90;;
44606;SDS011;30315;46.072;14.474;2024-02-28T14:26:39;5.15;;;4.28;;
44606;SDS011;30315;46.072;14.474;2024-02-28T14:29:09;4.47;;;4.18;;
44606;SDS011;30315;46.072;14.474;2024-02-28T14:31:37;6.18;;;4.65;;
44606;SDS011;30315;46.072;14.474;2024-02-28T14:34:06;6.57;;;4.22;;
44606;SDS011;30315;46.072;14.474;2024-02-28T14:36:33;4.57;;;4.07;;
44606;SDS011;30315;46.072;14.474;2024-02-28T14:39:01;4.38;;;4.07;;
44606;SDS011;30315;46.072;14.474;2024-02-28T14:41:31;4.25;;;3.83;;
44606;SDS011;30315;46.072;14.474;2024-02-28T14:44:01;3.83;;;3.47;;
44606;SDS011;30315;46.072;14.474;2024-02-28T14:46:28;5.07;;;4.50;;
44606;SDS011;30315;46.072;14.474;2024-02-28T14:48:58;5.63;;;3.92;;
44606;SDS011;30315;46.072;14.474;2024-02-28T14:51:25;4.40;;;4.03;;
44606;SDS011;30315;46.072;14.474;2024-02-28T14:53:56;4.25;;;3.88;;
44606;SDS011;30315;46.072;14.474;2024-02-28T14:56:30;6.55;;;5.35;;
44606;SDS011;30315;46.072;14.474;2024-02-28T14:59:02;6.18;;;4.35;;
44606;SDS011;30315;46.072;14.474;2024-02-28T15:01:33;4.53;;;4.13;;